Time;durP1;ratioP1;P1;durP2;ratioP2;P2;SDS_P1;SDS_P2;PMS_P1;PMS_P2;Temp;Humidity;BMP_temperature;BMP_pressure;BME280_temperature;BME280_humidity;BME280_pressure;Samples;Min_cycle;Max_cycle;Signal;HPM_P1;HPM_P2
2022/12/07 00:01:44;;;;;;;8.37;6.83;;;;;;;8.58;59.34;97508.16;5031589;28;20180;-70
2022/12/07 00:04:13;;;;;;;9.83;7.37;;;;;;;8.54;59.78;97511.16;5031304;28;20191;-68
2022/12/07 00:06:40;;;;;;;8.53;7.13;;;;;;;8.56;59.66;97506.63;5030891;28;20437;-70
2022/12/07 00:09:08;;;;;;;10.00;7.30;;;;;;;8.55;59.51;97502.38;5031252;28;20450;-69
2022/12/07 00:11:34;;;;;;;7.97;6.90;;;;;;;8.58;59.14;97505.53;5036280;28;20509;-70
2022/12/07 00:14:02;;;;;;;9.07;7.47;;;;;;;8.56;59.53;97504.84;5034297;28;20481;-69
2022/12/07 00:16:29;;;;;;;9.57;6.90;;;;;;;8.57;59.71;97503.88;5030366;28;20184;-68
2022/12/07 00:18:55;;;;;;;8.63;7.33;;;;;;;8.61;59.05;97504.44;5028392;28;20977;-69
2022/12/07 00:21:23;;;;;;;9.07;7.10;;;;;;;8.60;58.89;97505.41;5033053;28;20571;-69
2022/12/07 00:23:50;;;;;;;8.57;7.20;;;;;;;8.61;58.84;97499.22;5027049;28;20556;-69
2022/12/07 00:26:21;;;;;;;8.77;7.30;;;;;;;8.59;58.99;97503.75;5031972;28;20434;-69
2022/12/07 00:28:48;;;;;;;10.27;7.03;;;;;;;8.60;58.98;97508.00;5032198;28;20762;-68
2022/12/07 00:31:14;;;;;;;8.10;6.87;;;;;;;8.58;58.99;97496.84;5031517;28;20461;-68
2022/12/07 00:33:39;;;;;;;9.77;7.00;;;;;;;8.62;59.14;97500.88;5031817;28;20426;-69
2022/12/07 00:36:08;;;;;;;8.20;6.77;;;;;;;8.57;58.61;97503.88;5030839;28;20521;-71
2022/12/07 00:38:35;;;;;;;9.70;7.50;;;;;;;8.54;58.66;97498.09;5027153;28;20207;-70
2022/12/07 00:41:06;;;;;;;8.90;7.03;;;;;;;8.44;58.91;97501.44;5035777;28;20484;-68
2022/12/07 00:43:32;;;;;;;8.87;6.63;;;;;;;8.52;59.10;97497.41;5036503;28;20522;-70
2022/12/07 00:45:57;;;;;;;9.43;7.97;;;;;;;8.48;58.61;97501.22;5030168;28;20512;-70
2022/12/07 00:48:23;;;;;;;7.10;6.40;;;;;;;8.43;58.50;97505.06;5029675;28;20176;-67
2022/12/07 00:50:49;;;;;;;8.30;6.90;;;;;;;8.51;58.86;97495.75;5031609;28;20602;-70
2022/12/07 00:53:15;;;;;;;10.40;7.13;;;;;;;8.46;58.69;97496.94;5027969;28;20941;-69
2022/12/07 00:55:40;;;;;;;8.40;6.70;;;;;;;8.53;58.93;97494.66;5036933;28;20275;-69
2022/12/07 00:58:06;;;;;;;10.13;7.73;;;;;;;8.53;58.41;97493.84;5031056;28;20203;-69
2022/12/07 01:00:31;;;;;;;11.53;7.43;;;;;;;8.48;58.49;97496.84;5030086;28;20203;-70
2022/12/07 01:02:57;;;;;;;9.90;7.80;;;;;;;8.52;57.87;97500.81;5031639;28;20555;-70
2022/12/07 01:05:22;;;;;;;8.80;7.87;;;;;;;8.53;58.28;97501.69;5030165;28;20241;-69
2022/12/07 01:07:48;;;;;;;9.13;7.40;;;;;;;8.49;58.37;97502.88;5029827;28;20188;-69
2022/12/07 01:10:14;;;;;;;8.67;7.77;;;;;;;8.49;57.74;97500.28;5029917;28;20282;-69
2022/12/07 01:12:40;;;;;;;10.27;8.30;;;;;;;8.51;57.94;97498.34;5031436;28;20180;-68
2022/12/07 01:15:06;;;;;;;9.20;8.00;;;;;;;8.50;57.75;97502.78;5029726;28;20431;-68
2022/12/07 01:17:32;;;;;;;10.40;8.30;;;;;;;8.49;57.76;97505.50;5030037;28;20438;-69
2022/12/07 01:19:57;;;;;;;13.50;7.97;;;;;;;8.55;57.74;97499.75;5028659;28;20809;-69
2022/12/07 01:22:23;;;;;;;9.03;7.67;;;;;;;8.55;56.66;97499.75;5029104;28;20662;-69
2022/12/07 01:24:48;;;;;;;8.40;7.30;;;;;;;8.51;57.29;97508.81;5030062;28;20275;-70
2022/12/07 01:27:14;;;;;;;12.43;7.80;;;;;;;8.54;57.03;97508.56;5011244;28;20191;-68
2022/12/07 01:29:40;;;;;;;9.67;8.17;;;;;;;8.52;57.00;97515.69;5030656;28;20608;-69
2022/12/07 01:32:05;;;;;;;9.43;7.90;;;;;;;8.49;57.19;97506.34;5029393;28;20199;-69
2022/12/07 01:34:31;;;;;;;9.30;7.60;;;;;;;8.53;57.15;97512.13;5031080;28;20194;-69
2022/12/07 01:36:57;;;;;;;9.30;7.30;;;;;;;8.52;57.13;97516.50;5029137;28;20192;-69
2022/12/07 01:39:22;;;;;;;10.67;8.57;;;;;;;8.48;57.59;97520.34;5011883;28;20211;-69
2022/12/07 01:41:48;;;;;;;9.20;7.53;;;;;;;8.54;56.73;97519.00;5035532;28;20422;-71
2022/12/07 01:44:24;;;;;;;10.37;7.93;;;;;;;8.52;57.09;97520.91;5029159;28;20254;-70
2022/12/07 01:46:54;;;;;;;11.37;9.20;;;;;;;8.53;56.86;97517.34;5033899;28;20191;-70
2022/12/07 01:49:32;;;;;;;10.07;8.50;;;;;;;8.49;57.13;97521.16;5028949;28;20450;-69
2022/12/07 01:52:24;;;;;;;10.77;8.30;;;;;;;8.49;57.19;97521.16;5030859;28;20809;-70
2022/12/07 01:54:52;;;;;;;11.03;8.47;;;;;;;8.46;57.09;97522.25;5026176;28;20422;-70
2022/12/07 01:57:18;;;;;;;10.30;8.60;;;;;;;8.49;57.08;97515.94;5031647;28;20517;-70
2022/12/07 01:59:45;;;;;;;10.60;7.90;;;;;;;8.46;56.92;97511.78;5030363;28;20469;-69
2022/12/07 02:02:19;;;;;;;10.20;8.47;;;;;;;8.43;57.48;97518.09;5012605;28;20967;-70
2022/12/07 02:04:45;;;;;;;13.10;8.73;;;;;;;8.38;57.38;97504.59;5033048;28;20429;-70
2022/12/07 02:07:10;;;;;;;10.47;7.93;;;;;;;8.39;57.06;97514.09;5029764;28;20787;-71
2022/12/07 02:09:36;;;;;;;12.80;8.33;;;;;;;8.34;56.77;97518.06;5034172;28;20929;-70
2022/12/07 02:12:01;;;;;;;12.20;8.30;;;;;;;8.37;56.70;97523.03;5030487;28;20274;-69
2022/12/07 02:14:27;;;;;;;11.70;8.80;;;;;;;8.36;57.29;97523.97;5029526;28;20187;-69
2022/12/07 02:17:12;;;;;;;12.50;8.70;;;;;;;8.31;57.84;97524.38;5028862;28;20180;-70
2022/12/07 02:19:56;;;;;;;9.53;7.77;;;;;;;8.35;57.07;97517.91;5022631;28;20265;-70
2022/12/07 02:22:27;;;;;;;11.57;8.83;;;;;;;8.34;57.01;97518.88;5027738;28;20438;-70
2022/12/07 02:25:16;;;;;;;9.50;7.97;;;;;;;8.26;57.36;97509.06;5029234;28;20510;-69
2022/12/07 02:28:01;;;;;;;11.00;8.57;;;;;;;8.29;57.13;97515.84;5034208;28;20453;-69
2022/12/07 02:30:31;;;;;;;11.00;8.27;;;;;;;8.19;57.37;97509.75;5032436;28;20471;-70
2022/12/07 02:33:12;;;;;;;11.00;9.03;;;;;;;8.14;57.74;97505.72;5033822;28;20438;-69
2022/12/07 02:35:43;;;;;;;9.90;8.03;;;;;;;8.24;57.70;97502.34;5029708;28;20948;-69
2022/12/07 02:38:37;;;;;;;11.20;8.73;;;;;;;8.25;57.41;97509.22;5031812;28;20461;-69
2022/12/07 02:41:06;;;;;;;12.00;8.53;;;;;;;8.23;57.12;97503.28;5025635;28;20859;-69
2022/12/07 02:43:39;;;;;;;14.73;8.57;;;;;;;8.06;57.53;97500.34;5040059;28;20423;-69
2022/12/07 02:46:08;;;;;;;11.70;9.10;;;;;;;8.10;57.32;97496.50;5032934;28;20418;-70
2022/12/07 02:48:34;;;;;;;13.40;9.43;;;;;;;8.12;57.29;97501.59;5026650;28;20434;-69
2022/12/07 02:51:00;;;;;;;10.27;7.97;;;;;;;8.15;57.48;97499.56;5032604;28;20465;-69
2022/12/07 02:53:30;;;;;;;11.83;8.97;;;;;;;8.10;57.17;97500.91;5032782;28;20906;-69
2022/12/07 02:55:55;;;;;;;11.00;8.23;;;;;;;8.13;57.96;97496.25;5041039;28;20200;-69
2022/12/07 02:58:31;;;;;;;9.90;7.97;;;;;;;8.05;57.52;97490.84;5029815;28;20869;-69
2022/12/07 03:01:11;;;;;;;10.50;8.37;;;;;;;8.05;58.29;97490.84;5015961;28;20698;-70
2022/12/07 03:03:37;;;;;;;10.70;8.13;;;;;;;8.10;57.67;97488.66;5032950;28;20487;-69
2022/12/07 03:06:10;;;;;;;13.03;9.60;;;;;;;8.03;57.05;97494.53;5033430;28;20434;-71
2022/12/07 03:08:50;;;;;;;13.43;9.03;;;;;;;7.98;57.94;97487.09;5038797;28;20184;-69
2022/12/07 03:11:34;;;;;;;11.67;8.63;;;;;;;8.07;57.89;97478.47;5033898;28;20549;-69
2022/12/07 03:14:07;;;;;;;12.30;9.20;;;;;;;8.15;57.26;97491.72;5032738;28;20434;-69
2022/12/07 03:16:36;;;;;;;11.93;8.90;;;;;;;8.09;57.34;97483.59;5026846;28;20465;-69
2022/12/07 03:19:10;;;;;;;12.20;8.87;;;;;;;7.99;57.78;97478.31;5039298;28;20469;-68
2022/12/07 03:21:56;;;;;;;10.40;8.40;;;;;;;7.95;58.37;97475.13;5032513;28;20516;-69
2022/12/07 03:24:25;;;;;;;11.93;8.23;;;;;;;7.96;58.51;97484.63;5032132;28;20426;-69
2022/12/07 03:26:55;;;;;;;12.73;8.90;;;;;;;8.01;57.82;97476.41;5033543;28;20437;-70
2022/12/07 03:29:31;;;;;;;9.90;8.10;;;;;;;8.05;58.36;97483.03;5041675;28;20441;-68
2022/12/07 03:32:36;;;;;;;9.47;8.40;;;;;;;8.10;57.62;97480.03;5028885;28;20444;-69
2022/12/07 03:35:07;;;;;;;9.97;8.50;;;;;;;8.09;58.10;97480.97;5040411;28;20440;-69
2022/12/07 03:38:11;;;;;;;12.57;9.10;;;;;;;8.01;57.64;97476.41;5028361;28;20423;-69
2022/12/07 03:40:41;;;;;;;12.40;8.60;;;;;;;8.06;57.62;97474.25;5021819;28;20950;-70
2022/12/07 03:43:06;;;;;;;13.50;9.37;;;;;;;8.08;57.27;97461.84;5034590;28;20418;-69
2022/12/07 03:46:01;;;;;;;9.87;8.00;;;;;;;8.13;57.34;97472.75;5033401;28;20433;-70
2022/12/07 03:48:37;;;;;;;11.77;9.00;;;;;;;8.10;57.04;97469.56;5024874;28;20191;-69
2022/12/07 03:51:14;;;;;;;13.60;9.10;;;;;;;7.88;57.26;97471.38;5031667;28;20449;-69
2022/12/07 03:53:44;;;;;;;12.20;9.07;;;;;;;7.92;57.68;97475.38;5024975;28;20510;-70
2022/12/07 03:56:10;;;;;;;10.83;8.90;;;;;;;8.02;57.40;97472.84;5033443;28;20434;-69
2022/12/07 03:58:37;;;;;;;11.57;8.93;;;;;;;8.04;56.85;97480.53;5032866;28;21095;-69
2022/12/07 04:01:02;;;;;;;11.27;9.13;;;;;;;8.07;57.40;97470.66;5036652;28;20242;-69
2022/12/07 04:03:28;;;;;;;11.10;9.00;;;;;;;8.08;56.99;97469.69;5018840;28;20559;-69
2022/12/07 04:05:53;;;;;;;12.53;9.07;;;;;;;7.99;57.03;97473.09;5032041;28;20191;-71
2022/12/07 04:08:19;;;;;;;11.00;8.77;;;;;;;7.92;56.76;97466.75;5043502;28;20179;-69
2022/12/07 04:10:44;;;;;;;11.90;8.90;;;;;;;7.88;57.64;97466.16;5038933;28;20286;-69
2022/12/07 04:13:10;;;;;;;10.97;8.20;;;;;;;7.89;57.14;97464.38;5040467;28;20550;-70
2022/12/07 04:15:35;;;;;;;10.60;8.53;;;;;;;7.93;57.00;97465.78;5032807;28;20188;-70
2022/12/07 04:18:01;;;;;;;11.63;8.73;;;;;;;7.91;56.99;97457.25;5030830;28;20192;-69
2022/12/07 04:20:26;;;;;;;9.53;7.73;;;;;;;7.89;56.95;97459.16;5030951;28;20206;-69
2022/12/07 04:22:52;;;;;;;12.37;8.80;;;;;;;7.84;57.13;97464.78;5031037;28;20184;-70
2022/12/07 04:25:17;;;;;;;12.60;8.40;;;;;;;7.82;57.06;97462.28;5030881;28;20200;-70
2022/12/07 04:27:43;;;;;;;9.93;8.50;;;;;;;7.83;56.80;97460.50;5032114;28;20187;-70
2022/12/07 04:30:08;;;;;;;11.20;8.53;;;;;;;7.86;56.93;97462.03;5031804;28;20210;-70
2022/12/07 04:32:34;;;;;;;10.30;8.73;;;;;;;7.87;56.81;97468.91;5032113;28;20195;-69
2022/12/07 04:34:59;;;;;;;11.27;8.40;;;;;;;7.90;56.95;97463.44;5022208;28;20198;-69
2022/12/07 04:37:25;;;;;;;10.93;7.50;;;;;;;7.91;56.64;97449.44;5017389;28;20283;-69
2022/12/07 04:39:50;;;;;;;9.93;8.00;;;;;;;7.86;56.66;97451.59;5026999;28;20315;-68
2022/12/07 04:42:16;;;;;;;10.50;7.20;;;;;;;7.84;56.72;97442.09;5021319;28;20258;-69
2022/12/07 04:44:41;;;;;;;9.50;7.27;;;;;;;7.84;55.59;97442.09;5030474;28;20215;-70
2022/12/07 04:47:07;;;;;;;8.53;7.20;;;;;;;7.79;54.68;97433.84;5022008;28;20187;-69
2022/12/07 04:49:32;;;;;;;12.73;6.60;;;;;;;7.67;53.85;97421.84;5030407;28;20286;-69
2022/12/07 04:51:58;;;;;;;6.80;5.80;;;;;;;7.40;54.18;97420.56;5031313;28;20188;-69
2022/12/07 04:54:23;;;;;;;8.23;6.63;;;;;;;7.26;54.02;97419.06;5014089;28;20192;-69
2022/12/07 04:56:49;;;;;;;11.13;6.07;;;;;;;7.00;55.06;97413.41;5034517;28;20274;-69
2022/12/07 04:59:15;;;;;;;8.60;6.40;;;;;;;6.89;54.48;97416.88;5029263;28;20666;-69
2022/12/07 05:01:41;;;;;;;11.70;6.63;;;;;;;7.01;54.59;97415.06;5030070;28;20188;-69
2022/12/07 05:04:06;;;;;;;8.43;5.80;;;;;;;6.95;53.85;97405.13;5029034;28;20481;-69
2022/12/07 05:06:31;;;;;;;8.10;5.10;;;;;;;6.79;53.21;97403.78;5025837;28;20602;-68
2022/12/07 05:08:57;;;;;;;6.43;4.73;;;;;;;6.65;53.20;97406.66;5028135;28;20262;-69
2022/12/07 05:11:37;;;;;;;5.93;4.97;;;;;;;6.94;53.22;97406.06;5029077;28;20237;-69
2022/12/07 05:14:14;;;;;;;7.07;5.00;;;;;;;6.96;53.36;97406.78;5026090;28;20186;-69
2022/12/07 05:16:41;;;;;;;10.63;6.13;;;;;;;7.15;53.00;97412.16;5023922;28;20805;-69
2022/12/07 05:19:07;;;;;;;6.40;5.00;;;;;;;7.21;52.45;97416.84;5030172;28;20465;-68
2022/12/07 05:21:32;;;;;;;7.20;5.80;;;;;;;7.32;52.69;97417.75;5029719;28;20419;-69
2022/12/07 05:23:57;;;;;;;7.90;5.77;;;;;;;7.42;52.71;97420.44;5029030;28;20810;-69
2022/12/07 05:26:23;;;;;;;7.83;6.03;;;;;;;7.48;52.88;97418.13;5026378;28;20191;-69
2022/12/07 05:28:55;;;;;;;6.77;5.40;;;;;;;7.50;53.20;97420.59;5029699;28;20187;-69
2022/12/07 05:31:22;;;;;;;7.23;5.10;;;;;;;7.55;52.44;97423.66;5028607;28;20577;-69
2022/12/07 05:33:47;;;;;;;6.60;5.70;;;;;;;7.58;52.20;97419.97;5030931;28;20434;-69
2022/12/07 05:36:13;;;;;;;7.60;5.30;;;;;;;7.53;52.56;97426.41;5024720;28;20473;-68
2022/12/07 05:38:38;;;;;;;7.03;5.30;;;;;;;7.51;52.46;97430.94;5033858;28;20350;-69
2022/12/07 05:41:05;;;;;;;7.87;5.93;;;;;;;7.55;52.49;97428.88;5035380;28;20199;-70
2022/12/07 05:43:31;;;;;;;9.00;6.13;;;;;;;7.56;52.10;97429.72;5029507;28;20191;-69
2022/12/07 05:45:56;;;;;;;18.80;12.13;;;;;;;7.43;52.69;97435.97;5041195;28;20438;-69
2022/12/07 05:48:22;;;;;;;12.60;8.37;;;;;;;7.34;53.76;97434.09;5040049;28;20521;-69
2022/12/07 05:50:48;;;;;;;13.27;9.50;;;;;;;7.34;53.60;97447.13;5025981;28;20297;-68
2022/12/07 05:53:14;;;;;;;9.73;7.03;;;;;;;7.26;54.37;97459.97;5045137;28;20191;-69
2022/12/07 05:55:39;;;;;;;5.93;5.33;;;;;;;7.21;54.02;97450.75;5040615;28;20425;-69
2022/12/07 06:00:49;;;;;;;7.07;5.17;;;;;;;7.16;53.62;97454.69;5034715;28;20250;-68
2022/12/07 06:03:15;;;;;;;10.50;7.00;;;;;;;7.18;53.55;97452.78;5043642;28;20434;-67
2022/12/07 06:05:41;;;;;;;8.80;6.13;;;;;;;7.20;53.31;97458.69;5039561;28;20279;-68
2022/12/07 06:08:06;;;;;;;7.93;5.83;;;;;;;7.15;53.82;97453.88;5030303;28;20671;-69
2022/12/07 06:10:32;;;;;;;12.80;6.40;;;;;;;7.20;53.63;97450.88;5035144;28;20435;-69
2022/12/07 06:12:57;;;;;;;9.50;6.37;;;;;;;7.20;53.09;97451.69;5013759;28;20290;-69
2022/12/07 06:15:23;;;;;;;18.53;6.50;;;;;;;7.20;53.37;97445.66;5013302;28;20249;-69
2022/12/07 06:17:48;;;;;;;8.60;6.23;;;;;;;7.19;53.53;97447.44;5029144;28;20176;-68
2022/12/07 06:20:14;;;;;;;8.53;6.63;;;;;;;7.17;53.31;97454.56;5037194;28;20705;-68
2022/12/07 06:22:40;;;;;;;8.50;6.60;;;;;;;7.16;53.38;97452.91;5040587;28;20166;-69
2022/12/07 06:25:06;;;;;;;9.13;6.10;;;;;;;7.10;54.06;97449.97;4996964;28;20240;-71
2022/12/07 06:27:32;;;;;;;7.73;6.80;;;;;;;7.11;54.30;97452.44;5012800;28;20436;-70
2022/12/07 06:29:58;;;;;;;10.03;7.13;;;;;;;7.12;53.76;97459.31;5030161;28;20426;-70
2022/12/07 06:32:23;;;;;;;9.77;6.80;;;;;;;7.21;53.99;97461.16;5029477;28;20200;-70
2022/12/07 06:34:49;;;;;;;10.20;7.43;;;;;;;7.18;54.31;97464.03;5030297;28;20209;-69
2022/12/07 06:37:14;;;;;;;14.20;8.70;;;;;;;7.16;54.08;97460.72;5038299;28;20190;-70
2022/12/07 06:39:40;;;;;;;12.57;9.50;;;;;;;7.10;54.46;97466.44;5035351;28;20898;-70
2022/12/07 06:42:05;;;;;;;10.60;7.13;;;;;;;6.94;55.10;97460.78;5031925;28;20335;-70
2022/12/07 06:44:30;;;;;;;11.20;8.30;;;;;;;6.94;55.12;97456.41;5047479;28;20190;-69
2022/12/07 06:46:56;;;;;;;8.80;6.63;;;;;;;6.85;54.95;97462.38;5000105;28;20695;-71
2022/12/07 06:49:21;;;;;;;10.40;7.13;;;;;;;6.89;55.58;97464.59;5039400;28;20735;-70
2022/12/07 06:51:47;;;;;;;12.23;8.00;;;;;;;6.97;54.88;97460.53;5033948;28;20234;-70
2022/12/07 06:54:14;;;;;;;12.03;8.00;;;;;;;6.86;55.23;97470.06;5037648;28;20207;-71
2022/12/07 06:56:39;;;;;;;11.07;8.00;;;;;;;6.91;55.01;97459.25;5021775;28;20186;-69
2022/12/07 06:59:06;;;;;;;16.73;8.13;;;;;;;6.91;55.57;97459.25;5044014;28;20454;-70
2022/12/07 07:01:32;;;;;;;18.07;11.30;;;;;;;6.93;55.21;97459.97;5043515;28;20249;-70
2022/12/07 07:03:57;;;;;;;16.93;8.63;;;;;;;6.88;55.20;97452.53;5029563;28;20938;-71
2022/12/07 07:06:23;;;;;;;16.30;10.13;;;;;;;6.82;55.77;97455.59;5020600;28;20275;-70
2022/12/07 07:08:48;;;;;;;14.57;10.10;;;;;;;6.80;55.91;97454.09;5035275;28;20240;-70
2022/12/07 07:11:13;;;;;;;13.33;9.43;;;;;;;6.82;55.53;97453.00;5026722;28;20516;-72
2022/12/07 07:13:39;;;;;;;15.30;9.60;;;;;;;6.89;54.78;97462.00;5029568;28;20276;-70
2022/12/07 07:16:05;;;;;;;13.70;8.67;;;;;;;6.89;55.33;97467.22;5007385;28;20722;-71
2022/12/07 07:18:31;;;;;;;12.67;7.97;;;;;;;6.89;55.81;97464.59;5023428;28;20195;-70
2022/12/07 07:20:56;;;;;;;11.63;7.97;;;;;;;6.89;54.82;97471.59;5029919;28;20512;-70
2022/12/07 07:23:22;;;;;;;12.77;7.60;;;;;;;6.91;54.38;97467.94;5030464;28;20284;-70
2022/12/07 07:25:48;;;;;;;12.33;6.97;;;;;;;6.84;53.74;97465.94;5018986;28;20191;-71
2022/12/07 07:28:14;;;;;;;11.50;7.70;;;;;;;6.88;54.69;97469.91;5014745;28;20176;-70
2022/12/07 07:30:39;;;;;;;9.83;6.90;;;;;;;6.91;54.39;97478.34;5025760;28;20223;-70
2022/12/07 07:33:05;;;;;;;10.43;6.97;;;;;;;6.94;54.66;97479.03;5021240;28;20196;-70
2022/12/07 07:35:32;;;;;;;16.30;7.40;;;;;;;6.98;54.37;97483.06;5024164;28;20178;-70
2022/12/07 07:37:58;;;;;;;11.47;7.67;;;;;;;6.92;54.87;97481.75;5039236;28;20179;-70
2022/12/07 07:40:24;;;;;;;11.30;7.37;;;;;;;7.03;55.21;97492.16;5018977;28;20508;-70
2022/12/07 07:42:51;;;;;;;10.00;6.47;;;;;;;7.04;54.71;97485.19;5024117;28;20849;-69
2022/12/07 07:45:17;;;;;;;8.53;6.57;;;;;;;7.07;55.05;97490.13;5021745;28;20797;-69
2022/12/07 07:47:42;;;;;;;10.40;7.30;;;;;;;7.00;55.53;97491.59;5034023;28;20854;-69
2022/12/07 07:50:08;;;;;;;11.10;7.53;;;;;;;6.95;55.97;97486.75;5016662;28;20438;-70
2022/12/07 07:52:34;;;;;;;12.13;8.30;;;;;;;7.05;56.16;97489.44;5026393;28;20190;-70
2022/12/07 07:54:59;;;;;;;9.47;7.27;;;;;;;7.15;55.71;97494.72;5038940;28;21094;-69
2022/12/07 07:57:25;;;;;;;15.30;8.07;;;;;;;7.10;55.38;97502.09;5035442;28;20205;-69
2022/12/07 07:59:50;;;;;;;12.93;8.07;;;;;;;7.15;54.79;97492.97;5050063;28;20210;-69
2022/12/07 08:02:18;;;;;;;17.70;8.97;;;;;;;7.21;54.99;97489.84;5047752;28;20353;-69
2022/12/07 08:04:44;;;;;;;15.53;8.80;;;;;;;7.21;54.99;97489.84;5047047;28;20566;-69
2022/12/07 08:07:10;;;;;;;16.70;8.27;;;;;;;7.23;55.55;97487.94;5035035;28;20453;-70
2022/12/07 08:09:35;;;;;;;18.20;8.80;;;;;;;7.29;55.44;97486.63;5038870;28;20835;-70
2022/12/07 08:12:00;;;;;;;14.50;8.43;;;;;;;7.31;54.25;97486.50;5042148;28;20277;-68
2022/12/07 08:14:27;;;;;;;21.43;8.80;;;;;;;7.29;54.79;97489.22;5032584;28;20237;-69
2022/12/07 08:16:52;;;;;;;11.10;7.20;;;;;;;7.36;53.69;97492.16;5037464;28;20180;-69
2022/12/07 08:19:18;;;;;;;17.60;8.37;;;;;;;7.31;54.39;97499.56;5041964;28;20449;-69
2022/12/07 08:21:44;;;;;;;14.57;7.90;;;;;;;7.31;54.80;97494.34;5043228;28;20257;-70
2022/12/07 08:24:09;;;;;;;10.70;7.40;;;;;;;7.32;54.54;97493.34;5037917;28;20193;-69
2022/12/07 08:26:34;;;;;;;12.60;7.70;;;;;;;7.41;54.04;97495.25;5042626;28;20606;-69
2022/12/07 08:29:00;;;;;;;10.20;6.77;;;;;;;7.47;53.63;97494.72;5038852;28;20188;-70
2022/12/07 08:31:27;;;;;;;11.20;6.53;;;;;;;7.50;53.26;97497.09;5043059;28;20230;-70
2022/12/07 08:33:53;;;;;;;11.40;6.40;;;;;;;7.47;52.65;97505.16;5036229;28;20184;-69
2022/12/07 08:36:18;;;;;;;8.80;6.30;;;;;;;7.55;52.67;97501.09;5043423;28;20526;-69
2022/12/07 08:38:44;;;;;;;8.23;6.13;;;;;;;7.64;52.34;97500.34;5048391;28;20211;-69
2022/12/07 08:41:09;;;;;;;8.80;6.57;;;;;;;7.65;51.77;97502.00;5040403;28;20196;-71
2022/12/07 08:43:35;;;;;;;8.33;6.10;;;;;;;7.60;52.04;97498.94;5038726;28;20626;-69
2022/12/07 08:46:33;;;;;;;7.83;6.03;;;;;;;7.67;51.42;97500.09;5040328;28;20207;-71
2022/12/07 08:49:04;;;;;;;8.80;6.00;;;;;;;7.78;51.67;97510.47;5030743;28;20468;-69
2022/12/07 08:51:30;;;;;;;8.93;6.00;;;;;;;7.83;52.32;97507.47;5041555;28;20865;-69
2022/12/07 08:53:58;;;;;;;11.03;6.23;;;;;;;7.83;51.60;97508.28;5039020;28;20429;-70
2022/12/07 08:56:24;;;;;;;10.63;5.63;;;;;;;7.90;51.32;97511.22;5040018;28;20689;-70
2022/12/07 08:58:49;;;;;;;8.77;6.20;;;;;;;7.96;50.91;97509.88;5046942;28;20454;-70
2022/12/07 09:01:15;;;;;;;8.47;6.10;;;;;;;7.99;51.12;97505.25;5042888;28;20866;-71
2022/12/07 09:03:40;;;;;;;8.97;6.10;;;;;;;7.98;50.12;97508.81;5046440;28;20197;-70
2022/12/07 09:06:06;;;;;;;8.47;5.63;;;;;;;8.06;50.69;97510.78;5042587;28;20279;-70
2022/12/07 09:08:35;;;;;;;11.80;7.20;;;;;;;8.06;51.19;97509.94;5032381;28;20639;-70
2022/12/07 09:11:01;;;;;;;7.30;5.80;;;;;;;8.09;51.42;97510.50;5033727;28;20565;-70
2022/12/07 09:13:26;;;;;;;10.47;5.90;;;;;;;8.10;50.28;97504.34;5035393;28;20471;-69
2022/12/07 09:15:52;;;;;;;8.23;5.73;;;;;;;8.09;49.71;97507.91;5038344;28;20211;-70
2022/12/07 09:18:17;;;;;;;9.93;5.90;;;;;;;8.12;49.64;97504.22;5028196;28;20701;-69
2022/12/07 09:20:43;;;;;;;7.30;6.00;;;;;;;7.97;49.85;97507.16;5050772;28;20203;-70
2022/12/07 09:23:08;;;;;;;7.60;5.77;;;;;;;8.13;49.28;97511.06;5042412;28;20191;-70
2022/12/07 09:25:34;;;;;;;10.20;5.40;;;;;;;8.12;48.84;97502.41;5043571;28;20183;-70
2022/12/07 09:28:00;;;;;;;10.50;6.03;;;;;;;8.14;49.52;97505.72;5015017;28;20239;-71
2022/12/07 09:30:26;;;;;;;9.50;5.47;;;;;;;8.23;49.13;97511.13;5043137;28;20477;-69
2022/12/07 09:32:58;;;;;;;8.10;5.37;;;;;;;8.08;48.40;97503.63;5047367;28;20651;-70
2022/12/07 09:35:24;;;;;;;7.30;5.37;;;;;;;8.22;49.10;97504.25;5043715;28;20629;-70
2022/12/07 09:37:49;;;;;;;8.30;5.40;;;;;;;8.21;48.54;97497.38;5047829;28;20937;-69
2022/12/07 09:40:18;;;;;;;10.43;5.33;;;;;;;8.27;49.04;97502.91;5043213;28;20490;-70
2022/12/07 09:42:45;;;;;;;7.60;6.27;;;;;;;8.31;48.73;97498.25;5033381;28;20456;-72
2022/12/07 09:45:23;;;;;;;13.13;6.23;;;;;;;8.38;48.75;97491.53;5042382;28;20426;-69
2022/12/07 09:47:48;;;;;;;8.60;6.10;;;;;;;8.45;49.49;97490.03;5039565;28;20800;-69
2022/12/07 09:50:21;;;;;;;7.77;5.40;;;;;;;8.52;48.75;97489.56;5027292;28;20442;-69
2022/12/07 09:52:47;;;;;;;10.70;5.80;;;;;;;8.50;48.16;97499.31;5044622;28;20702;-70
2022/12/07 09:55:16;;;;;;;6.70;4.97;;;;;;;8.44;48.42;97488.41;5045587;28;20981;-69
2022/12/07 09:57:42;;;;;;;5.90;4.60;;;;;;;8.57;48.20;97482.97;5041398;28;20430;-70
2022/12/07 10:00:15;;;;;;;5.43;4.60;;;;;;;8.62;48.42;97484.38;5050678;28;20530;-69
2022/12/07 10:02:46;;;;;;;6.50;4.90;;;;;;;8.62;48.42;97479.97;5042414;28;20240;-70
2022/12/07 10:05:15;;;;;;;8.60;6.23;;;;;;;8.66;48.14;97473.53;5047090;28;20434;-70
2022/12/07 10:07:40;;;;;;;7.63;4.37;;;;;;;8.70;48.51;97477.50;5031233;28;20503;-70
2022/12/07 10:10:14;;;;;;;6.77;3.93;;;;;;;8.71;48.17;97471.31;5038443;28;20446;-69
2022/12/07 10:13:10;;;;;;;6.33;4.37;;;;;;;8.74;49.08;97460.59;5041450;28;20266;-70
2022/12/07 10:15:43;;;;;;;6.77;4.37;;;;;;;8.75;48.86;97462.25;5024735;28;20541;-70
2022/12/07 10:18:30;;;;;;;7.57;4.90;;;;;;;8.84;49.01;97457.19;5009196;28;20525;-70
2022/12/07 10:21:14;;;;;;;7.37;4.40;;;;;;;8.89;48.60;97449.78;5046398;28;20587;-70
2022/12/07 10:23:42;;;;;;;5.20;4.30;;;;;;;8.91;48.86;97450.47;5029607;28;20532;-70
2022/12/07 10:26:27;;;;;;;7.53;4.93;;;;;;;8.97;48.74;97457.75;5038605;28;20425;-71
2022/12/07 10:28:52;;;;;;;7.00;4.53;;;;;;;8.96;48.31;97450.88;5044619;28;20536;-69
2022/12/07 10:31:19;;;;;;;8.77;4.40;;;;;;;8.97;48.43;97444.69;5035166;28;20537;-71
2022/12/07 10:33:57;;;;;;;9.20;4.10;;;;;;;8.95;48.29;97443.97;5046403;28;20205;-70
2022/12/07 10:36:38;;;;;;;4.77;4.17;;;;;;;8.99;48.49;97445.38;5042561;28;20529;-69
2022/12/07 10:39:03;;;;;;;5.93;4.47;;;;;;;9.02;48.33;97442.50;5045736;28;20843;-69
2022/12/07 10:41:29;;;;;;;8.43;5.17;;;;;;;9.03;48.73;97457.22;5037895;28;20438;-71
2022/12/07 10:43:56;;;;;;;4.77;4.20;;;;;;;9.05;48.44;97444.84;5041917;28;20190;-71
2022/12/07 10:46:29;;;;;;;7.50;4.40;;;;;;;9.02;47.96;97449.50;5042546;28;20191;-70
2022/12/07 10:49:20;;;;;;;6.20;4.20;;;;;;;8.99;48.40;97445.38;5038938;28;20421;-71
2022/12/07 10:51:50;;;;;;;8.20;4.30;;;;;;;9.01;48.41;97446.06;5042646;28;20453;-70
2022/12/07 10:54:22;;;;;;;7.03;4.23;;;;;;;8.98;48.33;97448.13;5047363;28;20475;-70
2022/12/07 10:57:08;;;;;;;4.53;4.10;;;;;;;8.99;48.63;97436.72;5038722;28;20439;-68
2022/12/07 10:59:46;;;;;;;7.67;4.00;;;;;;;9.07;48.69;97437.66;5025855;28;20466;-70
2022/12/07 11:02:33;;;;;;;4.77;4.17;;;;;;;9.06;49.18;97425.56;5038287;28;20425;-69
2022/12/07 11:05:06;;;;;;;10.83;4.50;;;;;;;9.04;49.17;97424.88;5045409;28;20442;-70
2022/12/07 11:07:34;;;;;;;7.10;4.47;;;;;;;9.12;48.34;97425.97;5011023;28;20441;-70
2022/12/07 11:10:16;;;;;;;7.23;4.20;;;;;;;9.12;48.46;97418.13;5042074;28;20434;-71
2022/12/07 11:13:18;;;;;;;8.33;4.60;;;;;;;9.17;48.55;97416.75;5040609;28;20484;-71
2022/12/07 11:16:25;;;;;;;6.60;5.30;;;;;;;9.25;48.63;97410.84;5035495;28;20471;-70
2022/12/07 11:18:56;;;;;;;5.17;3.87;;;;;;;9.28;47.54;97413.19;5034191;28;20469;-71
2022/12/07 11:21:33;;;;;;;5.43;4.07;;;;;;;9.27;48.22;97411.53;5041499;28;20966;-71
2022/12/07 11:24:52;;;;;;;6.07;4.23;;;;;;;9.27;48.71;97410.69;5047841;28;20432;-70
2022/12/07 11:27:38;;;;;;;6.17;5.07;;;;;;;9.20;48.08;97403.41;5034891;28;20869;-70
2022/12/07 11:30:27;;;;;;;6.60;4.67;;;;;;;9.25;48.39;97400.38;5040481;28;20449;-69
2022/12/07 11:33:26;;;;;;;6.00;4.50;;;;;;;9.24;48.56;97403.94;5037916;28;20458;-69
2022/12/07 11:36:24;;;;;;;7.70;4.37;;;;;;;9.28;48.54;97405.34;5033418;28;20430;-70
2022/12/07 11:38:56;;;;;;;4.73;4.30;;;;;;;9.20;48.84;97397.34;5027266;28;20556;-71
2022/12/07 11:41:29;;;;;;;6.33;4.30;;;;;;;9.17;49.00;97392.41;5039080;28;20439;-70
2022/12/07 11:44:19;;;;;;;4.60;3.80;;;;;;;9.18;48.87;97386.22;5028727;28;20426;-70
2022/12/07 11:46:54;;;;;;;8.00;5.10;;;;;;;9.09;48.11;97382.63;5040808;28;20506;-70
2022/12/07 11:49:27;;;;;;;5.40;4.13;;;;;;;9.13;48.21;97383.19;5047461;28;20927;-69
2022/12/07 11:51:55;;;;;;;4.70;4.20;;;;;;;9.17;49.01;97376.72;5044492;28;20513;-71